KSCK/SCK METAR and TAF weather

Enter ICAO airport designator
Station Type Date Time Source
KSCK METAR 2021/09/28 15:55 UTC NOAA

KSCK 281555Z 31018G23KT 10SM CLR 15/06 A3003 RMK AO2 SLP170 T01500061


Station Type Date Time Source
KSCK Decoded METAR 2021/09/28 15:55 UTC NOAA

STOCKTON METROPOLITAN AIRPORT , CA, United States (KSCK) 37-54N 121-14W 10M
Sep 28, 2021 - 11:55 AM EDT / 2021.09.28 1555 UTC
Wind: from the NW (310 degrees) at 21 MPH (18 KT) gusting to 26 MPH (23 KT):0
Visibility: 10 mile(s):0
Sky conditions: clear
Temperature: 59.0 F (15.0 C)
Dew Point: 43.0 F (6.1 C)
Relative Humidity: 55%
Pressure (altimeter): 30.03 in. Hg (1016 hPa)
ob: KSCK 281555Z 31018G23KT 10SM CLR 15/06 A3003 RMK AO2 SLP170 T01500061
cycle: 16

Station Type Date Time Source
KSCK TAF 2021/09/28 12:22 UTC NOAA

TAF KSCK 281120Z 2812/2912 30013KT P6SM SKC
FM281600 31015G22KT P6SM SKC
FM282100 32020G27KT P6SM SKC
FM290300 29010KT P6SM SKC

Example: see airport list